Terminal Aerodrome Forecast
Issued by NWS

Home | Current Version | Previous Version | Text Only | Print | Product List | Glossary On
Versions: 1 2 3 4 5 6 7 8 9 10 11 12 13 14 15
000
FTUS45 KABQ 291700
TAFLVS
TAF
KLVS 291720Z 2918/3018 09012G20KT P6SM FEW100
     FM292100 15015G25KT P6SM VCSH BKN100
     FM300400 19009KT P6SM BKN120=

USA.gov is the U.S. government's official web portal to all federal, state and local government web resources and services.